createdAt,value
2023-02-09T02:47:02.387Z,1.53
2023-02-09T02:49:37.120Z,1.56
2023-02-09T02:52:08.483Z,1.59
2023-02-09T02:54:41.056Z,1.56
2023-02-09T02:57:14.477Z,1.61
2023-02-09T02:59:47.251Z,1.68
2023-02-09T03:02:21.070Z,1.65
2023-02-09T03:04:52.930Z,1.70
2023-02-09T03:07:21.267Z,1.84
2023-02-09T03:09:50.629Z,1.88
2023-02-09T03:12:30.017Z,1.88
2023-02-09T03:15:15.181Z,1.88
2023-02-09T03:17:49.205Z,1.86
2023-02-09T03:20:27.600Z,1.80
2023-02-09T03:23:02.469Z,1.91
2023-02-09T03:25:35.944Z,1.95
2023-02-09T03:28:09.300Z,1.85
2023-02-09T03:30:42.129Z,1.84
2023-02-09T03:33:21.579Z,1.78
2023-02-09T03:35:52.727Z,1.85
2023-02-09T03:38:20.833Z,1.85
2023-02-09T03:40:48.830Z,1.86
2023-02-09T03:43:17.350Z,1.88
2023-02-09T03:45:45.380Z,1.98
2023-02-09T03:48:13.462Z,1.88
2023-02-09T03:50:43.329Z,1.99
2023-02-09T03:53:11.625Z,1.86
2023-02-09T03:55:39.720Z,1.98
2023-02-09T03:58:08.061Z,1.96
2023-02-09T04:00:36.260Z,1.93
2023-02-09T04:03:04.933Z,1.95
2023-02-09T04:05:33.020Z,1.92
2023-02-09T04:08:02.714Z,1.94
2023-02-09T04:10:31.043Z,1.79
2023-02-09T04:12:59.021Z,1.83
2023-02-09T04:15:27.106Z,1.91
2023-02-09T04:17:55.628Z,1.92
2023-02-09T04:20:23.625Z,1.92
2023-02-09T04:22:51.577Z,1.97
2023-02-09T04:25:21.371Z,1.90
2023-02-09T04:27:49.425Z,1.82
2023-02-09T04:30:18.175Z,1.95
2023-02-09T04:32:46.560Z,1.94
2023-02-09T04:35:14.774Z,1.86
2023-02-09T04:37:43.230Z,1.87
2023-02-09T04:40:15.916Z,2.02
2023-02-09T04:42:51.207Z,1.82
2023-02-09T04:45:23.405Z,1.93
2023-02-09T04:47:52.714Z,1.90
2023-02-09T04:50:22.704Z,1.86
2023-02-09T04:53:12.276Z,1.89
2023-02-09T04:55:49.343Z,1.97
2023-02-09T04:58:40.800Z,1.82
2023-02-09T05:01:10.343Z,1.82
2023-02-09T05:03:38.553Z,1.84
2023-02-09T05:06:07.729Z,1.93
2023-02-09T05:08:36.077Z,1.81
2023-02-09T05:11:04.272Z,1.92
2023-02-09T05:13:33.580Z,1.94
2023-02-09T05:16:06.653Z,1.97
2023-02-09T05:18:34.892Z,1.97
2023-02-09T05:21:03.156Z,1.97
2023-02-09T05:23:31.267Z,1.92
2023-02-09T05:25:59.367Z,1.93
2023-02-09T05:28:27.819Z,1.95
2023-02-09T05:30:57.261Z,1.90
2023-02-09T05:33:26.776Z,2.03
2023-02-09T05:35:56.688Z,1.96
2023-02-09T05:38:25.085Z,2.05
2023-02-09T05:40:53.174Z,2.00
2023-02-09T05:43:21.549Z,2.04
2023-02-09T05:45:49.524Z,2.07
2023-02-09T05:48:18.939Z,2.04
2023-02-09T05:50:49.062Z,2.04
2023-02-09T05:53:17.152Z,2.04
2023-02-09T05:55:45.326Z,1.96
2023-02-09T05:58:13.936Z,1.95
2023-02-09T06:00:41.996Z,1.93
2023-02-09T06:03:10.344Z,1.93
2023-02-09T06:05:39.847Z,1.96
2023-02-09T06:08:07.891Z,1.92
2023-02-09T06:10:36.722Z,1.90
2023-02-09T06:13:05.605Z,1.89
2023-02-09T06:15:34.060Z,1.87
2023-02-09T06:18:02.616Z,1.69
2023-02-09T06:20:33.163Z,1.59
2023-02-09T06:23:03.055Z,1.62
2023-02-09T06:25:33.951Z,1.59
2023-02-09T06:28:02.754Z,1.58
2023-02-09T06:30:32.831Z,1.56
2023-02-09T06:33:10.093Z,1.53
2023-02-09T06:35:39.517Z,1.54
2023-02-09T06:38:09.229Z,1.57
2023-02-09T06:40:37.719Z,1.60
2023-02-09T07:17:14.235Z,1.95
2023-02-09T07:19:42.571Z,2.07
2023-02-09T07:22:10.650Z,2.19
2023-02-09T07:24:38.838Z,2.13
2023-02-09T07:27:07.940Z,2.22
2023-02-09T07:29:36.044Z,2.33
2023-02-09T07:32:04.125Z,2.38
2023-02-09T07:34:34.137Z,2.42
2023-02-09T07:37:02.696Z,2.48
2023-02-09T07:39:31.437Z,2.65
2023-02-09T07:42:00.221Z,2.59
2023-02-09T07:44:34.847Z,2.74
2023-02-09T07:47:03.105Z,2.82
2023-02-09T07:49:31.073Z,2.93
2023-02-09T07:52:00.458Z,2.96
2023-02-09T07:54:28.857Z,3.18
2023-02-09T07:56:57.350Z,3.27
2023-02-09T07:59:25.428Z,3.30
2023-02-09T08:01:53.857Z,3.50
2023-02-09T08:04:24.030Z,3.57
2023-02-09T08:06:53.268Z,3.68
2023-02-09T08:09:22.650Z,3.73
2023-02-09T08:11:56.186Z,3.84
2023-02-09T08:14:29.069Z,3.95
2023-02-09T08:17:16.122Z,4.00
2023-02-09T08:19:45.061Z,4.07
2023-02-09T08:22:13.485Z,4.21
2023-02-09T08:24:43.014Z,4.20
2023-02-09T08:27:11.704Z,4.23
2023-02-09T08:29:40.314Z,4.35
2023-02-09T08:32:08.657Z,4.44
2023-02-09T08:34:36.863Z,4.40
2023-02-09T08:37:05.271Z,4.58
2023-02-09T08:39:33.435Z,4.50
2023-02-09T08:42:02.857Z,4.67
2023-02-09T08:44:31.441Z,4.58
2023-02-09T08:47:00.914Z,4.78
2023-02-09T08:49:28.948Z,4.85
2023-02-09T08:51:57.304Z,4.85
2023-02-09T08:54:25.494Z,5.03
2023-02-09T08:56:53.440Z,5.22
2023-02-09T08:59:23.416Z,5.30
2023-02-09T09:01:51.339Z,5.28
2023-02-09T09:04:21.203Z,5.35
2023-02-09T09:06:49.466Z,5.37
2023-02-09T09:09:17.412Z,5.38
2023-02-09T09:11:45.491Z,5.57
2023-02-09T09:14:13.795Z,5.52
2023-02-09T09:16:43.313Z,5.58
2023-02-09T09:19:11.309Z,5.73
2023-02-09T09:21:39.547Z,5.71
2023-02-09T09:24:07.613Z,5.70
2023-02-09T09:26:36.162Z,5.70
2023-02-09T09:29:04.477Z,5.77
2023-02-09T09:31:33.565Z,5.87
2023-02-09T09:34:03.057Z,5.82
2023-02-09T09:36:31.330Z,5.84
2023-02-09T09:38:59.405Z,5.86
2023-02-09T09:41:32.791Z,6.05
2023-02-09T09:44:02.438Z,6.13
2023-02-09T09:46:36.870Z,6.69
2023-02-09T09:49:07.127Z,6.84
2023-02-09T09:51:40.353Z,6.85
2023-02-09T09:54:15.464Z,6.98
2023-02-09T09:56:43.629Z,7.00
2023-02-09T09:59:17.756Z,7.37
2023-02-09T10:01:46.189Z,7.40
2023-02-09T10:04:16.915Z,7.63
2023-02-09T10:06:47.298Z,7.62
2023-02-09T10:09:26.127Z,7.77
2023-02-09T10:11:59.893Z,7.87
2023-02-09T10:14:28.822Z,8.05
2023-02-09T10:16:56.944Z,8.23
2023-02-09T10:19:27.528Z,8.14
2023-02-09T10:21:56.241Z,8.13
2023-02-09T10:24:26.438Z,8.15
2023-02-09T10:27:25.423Z,8.27
2023-02-09T10:29:53.822Z,8.11
2023-02-09T10:32:24.184Z,8.29
2023-02-09T10:34:56.859Z,8.41
2023-02-09T10:37:30.573Z,8.33
2023-02-09T10:40:09.949Z,8.54
2023-02-09T10:42:40.848Z,8.64
2023-02-09T10:45:17.207Z,8.85
2023-02-09T10:47:58.743Z,8.96
2023-02-09T10:50:28.352Z,9.16
2023-02-09T10:53:00.224Z,9.21
2023-02-09T10:55:35.370Z,9.42
2023-02-09T10:58:22.410Z,9.34
2023-02-09T11:00:54.561Z,9.49
2023-02-09T11:03:26.012Z,9.33
2023-02-09T11:06:04.349Z,9.13
2023-02-09T11:08:41.523Z,9.32
2023-02-09T11:11:21.357Z,9.27
2023-02-09T11:13:49.566Z,9.04
2023-02-09T11:16:45.379Z,8.93
2023-02-09T11:19:25.949Z,9.19
2023-02-09T11:22:03.620Z,9.01
2023-02-09T11:24:47.831Z,8.84
2023-02-09T11:27:29.933Z,9.01
2023-02-09T11:30:12.354Z,9.26
2023-02-09T11:32:47.370Z,9.55
2023-02-09T11:35:19.765Z,9.76
2023-02-09T11:37:57.549Z,9.89
2023-02-09T11:40:32.506Z,9.78
2023-02-09T11:43:11.332Z,9.79
2023-02-09T11:45:44.929Z,9.99
2023-02-09T11:48:18.833Z,9.96
2023-02-09T11:50:57.992Z,10.18
2023-02-09T11:53:34.439Z,10.34
2023-02-09T11:56:05.400Z,10.50
2023-02-09T11:58:43.806Z,10.35
2023-02-09T12:01:21.675Z,10.44
2023-02-09T12:04:02.460Z,10.45
2023-02-09T12:06:38.538Z,10.27
2023-02-09T12:09:20.816Z,10.28
2023-02-09T12:11:58.489Z,10.39
2023-02-09T12:14:57.885Z,9.94
2023-02-09T12:17:31.379Z,10.24
2023-02-09T12:20:01.316Z,10.63
2023-02-09T12:22:49.664Z,10.77
2023-02-09T12:25:50.245Z,10.82
2023-02-09T12:28:39.862Z,10.92
2023-02-09T12:31:12.215Z,11.07
2023-02-09T12:34:01.345Z,11.41
2023-02-09T12:36:31.666Z,11.56
2023-02-09T12:39:06.199Z,11.59
2023-02-09T12:42:07.842Z,11.83
2023-02-09T12:44:55.593Z,11.99
2023-02-09T12:47:47.426Z,11.80
2023-02-09T12:50:45.375Z,11.48
2023-02-09T12:53:34.634Z,11.80
2023-02-09T12:56:06.067Z,11.65
2023-02-09T12:58:55.043Z,11.98
2023-02-09T13:02:03.344Z,11.82
2023-02-09T13:04:35.646Z,11.34
2023-02-09T13:08:13.644Z,11.85
2023-02-09T13:10:45.040Z,11.85
2023-02-09T13:13:20.422Z,11.65
2023-02-09T13:16:09.660Z,11.18
2023-02-09T13:18:47.351Z,11.31
2023-02-09T13:21:21.525Z,11.26
2023-02-09T13:24:03.456Z,11.39
2023-02-09T13:26:33.584Z,11.47
2023-02-09T13:29:20.921Z,11.62
2023-02-09T13:32:00.338Z,11.50
2023-02-09T13:34:35.791Z,11.62
2023-02-09T13:37:16.224Z,11.64
2023-02-09T13:39:45.832Z,11.46
2023-02-09T13:42:20.639Z,11.44
2023-02-09T13:44:51.651Z,11.38
2023-02-09T13:47:20.213Z,11.34
2023-02-09T13:50:00.030Z,11.23
2023-02-09T13:52:35.289Z,10.92
2023-02-09T13:55:17.083Z,11.31
2023-02-09T13:57:48.000Z,11.37
2023-02-09T14:00:25.509Z,11.60
2023-02-09T14:02:57.256Z,11.12
2023-02-09T14:05:33.211Z,11.14
2023-02-09T14:08:02.114Z,11.14
2023-02-09T14:10:34.291Z,10.95
2023-02-09T14:13:05.767Z,10.88
2023-02-09T14:15:55.923Z,11.03
2023-02-09T14:18:30.930Z,10.96
2023-02-09T14:21:01.254Z,11.03
2023-02-09T14:23:32.917Z,10.80
2023-02-09T14:26:06.627Z,10.68
2023-02-09T14:28:37.512Z,10.65
2023-02-09T14:31:07.295Z,10.57
2023-02-09T14:33:38.521Z,10.69
2023-02-09T14:36:07.639Z,10.54
2023-02-09T14:38:38.479Z,10.52
2023-02-09T14:41:28.906Z,10.00
2023-02-09T14:44:01.971Z,10.12
2023-02-09T14:46:46.591Z,9.99
2023-02-09T14:49:14.597Z,10.16
2023-02-09T14:51:43.191Z,10.15
2023-02-09T14:54:22.331Z,10.21
2023-02-09T14:56:53.185Z,10.14
2023-02-09T14:59:22.336Z,10.12
2023-02-09T15:01:52.933Z,10.08
2023-02-09T15:04:21.490Z,9.97
2023-02-09T15:07:02.346Z,9.98
2023-02-09T15:09:36.486Z,9.93
2023-02-09T15:12:06.876Z,9.90
2023-02-09T15:14:41.836Z,9.88
2023-02-09T15:17:13.493Z,9.76
2023-02-09T15:19:42.483Z,9.69
2023-02-09T15:22:13.572Z,9.65
2023-02-09T15:24:43.493Z,9.51
2023-02-09T15:27:23.915Z,9.48
2023-02-09T15:29:52.971Z,9.41
2023-02-09T15:32:23.922Z,9.34
2023-02-09T15:34:53.229Z,9.25
2023-02-09T15:37:24.365Z,9.20
2023-02-09T15:39:56.536Z,9.08
2023-02-09T15:42:43.653Z,8.92
2023-02-09T15:45:36.288Z,8.88
2023-02-09T15:48:04.820Z,8.75
2023-02-09T15:50:53.658Z,8.71
2023-02-09T15:53:22.130Z,8.62
2023-02-09T15:55:50.435Z,8.54
2023-02-09T15:58:23.024Z,8.44
2023-02-09T16:00:51.558Z,8.35
2023-02-09T16:03:21.705Z,8.29
2023-02-09T16:05:51.905Z,8.24
2023-02-09T16:08:23.566Z,8.14
2023-02-09T16:10:52.457Z,8.00
2023-02-09T16:13:22.176Z,7.86
2023-02-09T16:15:50.605Z,7.72
2023-02-09T16:18:18.741Z,7.71
2023-02-09T16:20:50.822Z,7.65
2023-02-09T16:23:22.461Z,7.49
2023-02-09T16:25:52.948Z,7.41
2023-02-09T16:28:23.004Z,7.38
2023-02-09T16:30:53.717Z,7.32
2023-02-09T16:33:22.872Z,7.25
2023-02-09T16:35:54.152Z,7.11
2023-02-09T16:38:24.328Z,7.02
2023-02-09T16:40:53.583Z,6.97
2023-02-09T16:43:24.283Z,6.91
2023-02-09T16:46:02.883Z,6.82
2023-02-09T16:48:34.406Z,6.76
2023-02-09T16:51:03.349Z,6.67
2023-02-09T16:53:33.858Z,6.67
2023-02-09T16:56:03.816Z,6.67
2023-02-09T16:58:33.449Z,6.66
2023-02-09T17:01:01.561Z,6.60
2023-02-09T17:03:34.381Z,6.57
2023-02-09T17:06:03.390Z,6.49
2023-02-09T17:08:32.934Z,6.45
2023-02-09T17:11:02.219Z,6.46
2023-02-09T17:13:32.166Z,6.46
2023-02-09T17:16:03.983Z,6.42
2023-02-09T17:18:35.267Z,6.38
2023-02-09T17:21:05.273Z,6.41
2023-02-09T17:23:35.443Z,6.41
2023-02-09T17:26:03.661Z,6.42
2023-02-09T17:28:31.928Z,6.42
2023-02-09T17:31:04.114Z,6.38
2023-02-09T17:33:34.234Z,6.36
2023-02-09T17:36:25.131Z,6.33
2023-02-09T17:38:52.900Z,6.28
2023-02-09T17:41:23.530Z,6.24
2023-02-09T17:43:53.668Z,6.14
2023-02-09T17:46:23.435Z,6.08
2023-02-09T17:48:51.379Z,6.07
2023-02-09T17:51:21.882Z,6.06
2023-02-09T17:53:50.660Z,6.01
2023-02-09T17:56:19.365Z,6.01
2023-02-09T17:58:48.274Z,5.98
2023-02-09T18:01:27.054Z,5.96
2023-02-09T18:03:56.537Z,5.94
2023-02-09T18:06:33.657Z,5.90
2023-02-09T18:09:02.769Z,5.88
2023-02-09T18:11:56.550Z,5.88
2023-02-09T18:14:26.566Z,5.88
2023-02-09T18:16:56.195Z,5.90
2023-02-09T18:19:25.859Z,5.89
2023-02-09T18:21:55.719Z,5.91
2023-02-09T18:24:25.674Z,5.87
2023-02-09T18:26:53.991Z,5.88
2023-02-09T18:29:26.238Z,5.90
2023-02-09T18:31:56.181Z,5.93
2023-02-09T18:34:24.331Z,5.96
2023-02-09T18:36:52.535Z,5.96
2023-02-09T18:39:20.750Z,5.96
2023-02-09T18:41:54.468Z,5.95
2023-02-09T18:44:28.885Z,5.91
2023-02-09T18:47:02.017Z,5.88
2023-02-09T18:49:30.849Z,5.87
2023-02-09T18:52:01.593Z,5.82
2023-02-09T18:54:31.214Z,5.82
2023-02-09T18:56:59.575Z,5.82
2023-02-09T18:59:31.785Z,5.82
2023-02-09T19:02:01.509Z,5.81
2023-02-09T19:04:29.936Z,5.77
2023-02-09T19:06:58.009Z,5.74
2023-02-09T19:09:26.230Z,5.73
2023-02-09T19:11:54.212Z,5.68
2023-02-09T19:14:40.277Z,5.66
2023-02-09T19:17:12.622Z,5.65
2023-02-09T19:19:40.578Z,5.64
2023-02-09T19:22:09.654Z,5.62
2023-02-09T19:24:37.689Z,5.59
2023-02-09T19:27:09.225Z,5.56
2023-02-09T19:29:38.646Z,5.45
2023-02-09T19:32:06.747Z,5.47
2023-02-09T19:34:40.230Z,5.48
2023-02-09T19:37:09.039Z,5.44
2023-02-09T19:39:38.775Z,5.44
2023-02-09T19:42:07.316Z,5.45
2023-02-09T19:44:36.240Z,5.44
2023-02-09T19:47:04.361Z,5.46
2023-02-09T19:49:34.305Z,5.45
2023-02-09T19:52:04.126Z,5.42
2023-02-09T19:54:32.812Z,5.39
2023-02-09T19:57:00.904Z,5.38
2023-02-09T19:59:29.662Z,5.39
2023-02-09T20:01:58.626Z,5.40
2023-02-09T20:04:26.992Z,5.41
2023-02-09T20:06:54.962Z,5.41
2023-02-09T20:09:24.275Z,5.38
2023-02-09T20:11:52.701Z,5.39
2023-02-09T20:14:21.392Z,5.39
2023-02-09T20:16:49.491Z,5.39
2023-02-09T20:19:17.913Z,5.39
2023-02-09T20:21:46.286Z,5.35
2023-02-09T20:24:15.477Z,5.35
2023-02-09T20:26:46.778Z,5.35
2023-02-09T20:29:16.781Z,5.34
2023-02-09T20:31:45.345Z,5.32
2023-02-09T20:34:15.118Z,5.33
2023-02-09T20:36:45.611Z,5.32
2023-02-09T20:39:16.306Z,5.34
2023-02-09T20:42:06.512Z,5.35
2023-02-09T20:44:53.349Z,5.35
2023-02-09T20:47:21.402Z,5.31
2023-02-09T20:49:49.927Z,5.28
2023-02-09T20:52:18.311Z,5.27
2023-02-09T20:54:46.861Z,5.25
2023-02-09T20:57:16.506Z,5.24
2023-02-09T20:59:44.567Z,5.23
2023-02-09T21:02:13.098Z,5.25
2023-02-09T21:04:41.833Z,5.24
2023-02-09T21:07:10.105Z,5.22
2023-02-09T21:09:39.486Z,5.16
2023-02-09T21:12:07.878Z,5.14
2023-02-09T21:14:42.133Z,5.14
2023-02-09T21:17:11.628Z,5.09
2023-02-09T21:19:39.730Z,5.06
2023-02-09T21:22:08.193Z,5.03
2023-02-09T21:24:38.611Z,4.98
2023-02-09T21:27:07.332Z,4.96
2023-02-09T21:29:37.226Z,4.97
2023-02-09T21:32:08.025Z,4.95
2023-02-09T21:34:36.425Z,4.94
2023-02-09T21:37:07.882Z,4.88
2023-02-09T21:39:36.214Z,4.89
2023-02-09T21:42:22.220Z,4.89
2023-02-09T21:44:52.133Z,4.89
2023-02-09T21:47:20.238Z,4.87
2023-02-09T21:49:49.456Z,4.85
2023-02-09T21:52:17.849Z,4.85
2023-02-09T21:54:45.849Z,4.81
2023-02-09T21:57:13.986Z,4.81
2023-02-09T21:59:42.543Z,4.78
2023-02-09T22:02:15.064Z,4.72
2023-02-09T22:04:43.809Z,4.69
2023-02-09T22:07:12.358Z,4.67
2023-02-09T22:09:41.026Z,4.61
2023-02-09T22:12:09.803Z,4.54
2023-02-09T22:14:38.065Z,4.53
2023-02-09T22:17:06.268Z,4.49
2023-02-09T22:19:36.148Z,4.47
2023-02-09T22:22:04.792Z,4.42
2023-02-09T22:24:34.816Z,4.40
2023-02-09T22:27:03.522Z,4.36
2023-02-09T22:29:33.249Z,4.36
2023-02-09T22:32:01.744Z,4.32
2023-02-09T22:34:30.118Z,4.29
2023-02-09T22:36:59.490Z,4.26
2023-02-09T22:39:27.491Z,4.24
2023-02-09T22:41:58.224Z,4.24
2023-02-09T22:44:27.845Z,4.26
2023-02-09T22:46:56.030Z,4.24
2023-02-09T22:49:24.162Z,4.25
2023-02-09T22:51:52.254Z,4.23
2023-02-09T22:54:22.096Z,4.22
2023-02-09T22:56:50.282Z,4.23
2023-02-09T22:59:18.233Z,4.24
2023-02-09T23:01:46.544Z,4.21
2023-02-09T23:04:14.771Z,4.22
2023-02-09T23:06:42.873Z,4.22
2023-02-09T23:09:14.020Z,4.23
2023-02-09T23:11:44.349Z,4.22
2023-02-09T23:14:13.612Z,4.25
2023-02-09T23:16:44.077Z,4.28
2023-02-09T23:19:16.083Z,4.30
2023-02-09T23:21:48.436Z,4.29
2023-02-09T23:24:21.640Z,4.26
2023-02-09T23:26:54.478Z,4.25
2023-02-09T23:29:26.107Z,4.25
2023-02-09T23:31:54.331Z,4.24
2023-02-09T23:34:24.064Z,4.22
2023-02-09T23:36:52.308Z,4.25
2023-02-09T23:39:23.126Z,4.28
2023-02-09T23:41:52.804Z,4.33
2023-02-09T23:44:20.960Z,4.39
2023-02-09T23:46:48.952Z,4.41
2023-02-09T23:49:17.234Z,4.50
2023-02-09T23:51:45.573Z,4.55
2023-02-09T23:54:13.591Z,4.62
2023-02-09T23:56:41.867Z,4.69
2023-02-09T23:59:14.986Z,4.73
